sensor_id;sensor_type;location;lat;lon;timestamp;P1;durP1;ratioP1;P2;durP2;ratioP2
19675;SDS011;39539;52.202;9.876;2023-05-07T00:01:22;40.33;;;36.25;;
19675;SDS011;39539;52.202;9.876;2023-05-07T00:03:48;40.72;;;36.55;;
19675;SDS011;39539;52.202;9.876;2023-05-07T00:06:13;42.55;;;38.00;;
19675;SDS011;39539;52.202;9.876;2023-05-07T00:08:39;42.47;;;37.70;;
19675;SDS011;39539;52.202;9.876;2023-05-07T00:11:04;42.72;;;38.30;;
19675;SDS011;39539;52.202;9.876;2023-05-07T00:13:30;43.67;;;39.03;;
19675;SDS011;39539;52.202;9.876;2023-05-07T00:16:00;42.90;;;38.55;;
19675;SDS011;39539;52.202;9.876;2023-05-07T00:18:26;45.90;;;41.10;;
19675;SDS011;39539;52.202;9.876;2023-05-07T00:20:52;47.72;;;39.92;;
19675;SDS011;39539;52.202;9.876;2023-05-07T00:23:18;42.13;;;37.78;;
19675;SDS011;39539;52.202;9.876;2023-05-07T00:25:45;41.75;;;37.22;;
19675;SDS011;39539;52.202;9.876;2023-05-07T00:28:10;44.97;;;39.65;;
19675;SDS011;39539;52.202;9.876;2023-05-07T00:30:35;44.47;;;39.28;;
19675;SDS011;39539;52.202;9.876;2023-05-07T00:33:01;42.80;;;37.75;;
19675;SDS011;39539;52.202;9.876;2023-05-07T00:35:27;42.28;;;37.67;;
19675;SDS011;39539;52.202;9.876;2023-05-07T00:37:53;40.45;;;36.25;;
19675;SDS011;39539;52.202;9.876;2023-05-07T00:40:18;43.38;;;37.20;;
19675;SDS011;39539;52.202;9.876;2023-05-07T00:42:44;41.63;;;37.10;;
19675;SDS011;39539;52.202;9.876;2023-05-07T00:45:12;42.83;;;37.90;;
19675;SDS011;39539;52.202;9.876;2023-05-07T00:47:38;44.45;;;37.63;;
19675;SDS011;39539;52.202;9.876;2023-05-07T00:50:04;45.65;;;39.15;;
19675;SDS011;39539;52.202;9.876;2023-05-07T00:52:32;44.70;;;38.45;;
19675;SDS011;39539;52.202;9.876;2023-05-07T00:54:57;46.87;;;41.70;;
19675;SDS011;39539;52.202;9.876;2023-05-07T00:57:29;49.28;;;40.03;;
19675;SDS011;39539;52.202;9.876;2023-05-07T01:00:01;45.20;;;39.25;;
19675;SDS011;39539;52.202;9.876;2023-05-07T01:02:27;50.50;;;40.38;;
19675;SDS011;39539;52.202;9.876;2023-05-07T01:04:52;46.28;;;40.92;;
19675;SDS011;39539;52.202;9.876;2023-05-07T01:07:17;48.72;;;40.63;;
19675;SDS011;39539;52.202;9.876;2023-05-07T01:09:43;52.10;;;41.92;;
19675;SDS011;39539;52.202;9.876;2023-05-07T01:12:09;55.58;;;42.58;;
19675;SDS011;39539;52.202;9.876;2023-05-07T01:14:35;51.25;;;41.13;;
19675;SDS011;39539;52.202;9.876;2023-05-07T01:17:01;47.95;;;40.40;;
19675;SDS011;39539;52.202;9.876;2023-05-07T01:19:26;47.28;;;38.63;;
19675;SDS011;39539;52.202;9.876;2023-05-07T01:21:55;48.78;;;39.67;;
19675;SDS011;39539;52.202;9.876;2023-05-07T01:24:28;48.88;;;40.00;;
19675;SDS011;39539;52.202;9.876;2023-05-07T01:26:54;45.30;;;38.47;;
19675;SDS011;39539;52.202;9.876;2023-05-07T01:29:20;47.85;;;38.65;;
19675;SDS011;39539;52.202;9.876;2023-05-07T01:31:45;49.10;;;40.03;;
19675;SDS011;39539;52.202;9.876;2023-05-07T01:34:12;46.65;;;38.65;;
19675;SDS011;39539;52.202;9.876;2023-05-07T01:36:40;50.05;;;41.58;;
19675;SDS011;39539;52.202;9.876;2023-05-07T01:39:08;44.33;;;38.75;;
19675;SDS011;39539;52.202;9.876;2023-05-07T01:41:34;41.65;;;36.88;;
19675;SDS011;39539;52.202;9.876;2023-05-07T01:44:00;41.38;;;35.35;;
19675;SDS011;39539;52.202;9.876;2023-05-07T01:46:29;38.65;;;33.28;;
19675;SDS011;39539;52.202;9.876;2023-05-07T01:48:56;36.17;;;32.30;;
19675;SDS011;39539;52.202;9.876;2023-05-07T01:51:21;35.70;;;31.92;;
19675;SDS011;39539;52.202;9.876;2023-05-07T01:53:47;35.63;;;31.98;;
19675;SDS011;39539;52.202;9.876;2023-05-07T01:56:15;34.33;;;30.65;;
19675;SDS011;39539;52.202;9.876;2023-05-07T01:58:41;33.35;;;29.67;;
19675;SDS011;39539;52.202;9.876;2023-05-07T02:01:07;32.38;;;29.25;;
19675;SDS011;39539;52.202;9.876;2023-05-07T02:03:32;32.17;;;28.77;;
19675;SDS011;39539;52.202;9.876;2023-05-07T02:05:57;31.83;;;28.70;;
19675;SDS011;39539;52.202;9.876;2023-05-07T02:08:24;31.63;;;28.27;;
19675;SDS011;39539;52.202;9.876;2023-05-07T02:10:49;29.98;;;27.00;;
19675;SDS011;39539;52.202;9.876;2023-05-07T02:13:16;30.35;;;27.48;;
19675;SDS011;39539;52.202;9.876;2023-05-07T02:15:41;29.05;;;26.40;;
19675;SDS011;39539;52.202;9.876;2023-05-07T02:18:07;27.52;;;25.30;;
19675;SDS011;39539;52.202;9.876;2023-05-07T02:20:34;27.50;;;25.08;;
19675;SDS011;39539;52.202;9.876;2023-05-07T02:23:01;27.23;;;24.92;;
19675;SDS011;39539;52.202;9.876;2023-05-07T02:25:27;27.77;;;25.23;;
19675;SDS011;39539;52.202;9.876;2023-05-07T02:27:52;28.17;;;25.55;;
19675;SDS011;39539;52.202;9.876;2023-05-07T02:30:17;27.17;;;24.77;;
19675;SDS011;39539;52.202;9.876;2023-05-07T02:32:44;27.48;;;25.17;;
19675;SDS011;39539;52.202;9.876;2023-05-07T02:35:10;25.48;;;23.17;;
19675;SDS011;39539;52.202;9.876;2023-05-07T02:37:40;26.88;;;24.65;;
19675;SDS011;39539;52.202;9.876;2023-05-07T02:40:06;26.58;;;24.38;;
19675;SDS011;39539;52.202;9.876;2023-05-07T02:42:32;24.98;;;22.88;;
19675;SDS011;39539;52.202;9.876;2023-05-07T02:44:57;25.95;;;23.75;;
19675;SDS011;39539;52.202;9.876;2023-05-07T02:47:22;23.85;;;22.13;;
19675;SDS011;39539;52.202;9.876;2023-05-07T02:49:48;23.20;;;21.40;;
19675;SDS011;39539;52.202;9.876;2023-05-07T02:52:13;23.08;;;21.17;;
19675;SDS011;39539;52.202;9.876;2023-05-07T02:54:40;24.10;;;22.20;;
19675;SDS011;39539;52.202;9.876;2023-05-07T02:57:05;25.33;;;23.30;;
19675;SDS011;39539;52.202;9.876;2023-05-07T02:59:31;25.23;;;23.17;;
19675;SDS011;39539;52.202;9.876;2023-05-07T03:01:57;26.02;;;23.92;;
19675;SDS011;39539;52.202;9.876;2023-05-07T03:04:22;26.95;;;24.85;;
19675;SDS011;39539;52.202;9.876;2023-05-07T03:06:48;27.67;;;25.38;;
19675;SDS011;39539;52.202;9.876;2023-05-07T03:09:13;25.75;;;23.58;;
19675;SDS011;39539;52.202;9.876;2023-05-07T03:11:38;25.80;;;23.38;;
19675;SDS011;39539;52.202;9.876;2023-05-07T03:14:05;26.20;;;23.85;;
19675;SDS011;39539;52.202;9.876;2023-05-07T03:16:30;25.25;;;23.23;;
19675;SDS011;39539;52.202;9.876;2023-05-07T03:18:57;27.55;;;25.35;;
19675;SDS011;39539;52.202;9.876;2023-05-07T03:21:22;28.08;;;25.52;;
19675;SDS011;39539;52.202;9.876;2023-05-07T03:23:49;28.00;;;25.50;;
19675;SDS011;39539;52.202;9.876;2023-05-07T03:26:16;26.35;;;24.25;;
19675;SDS011;39539;52.202;9.876;2023-05-07T03:28:41;27.95;;;25.48;;
19675;SDS011;39539;52.202;9.876;2023-05-07T03:31:06;26.50;;;24.55;;
19675;SDS011;39539;52.202;9.876;2023-05-07T03:33:35;26.50;;;24.38;;
19675;SDS011;39539;52.202;9.876;2023-05-07T03:36:03;27.55;;;25.00;;
19675;SDS011;39539;52.202;9.876;2023-05-07T03:38:29;27.73;;;25.40;;
19675;SDS011;39539;52.202;9.876;2023-05-07T03:40:54;26.15;;;23.95;;
19675;SDS011;39539;52.202;9.876;2023-05-07T03:43:21;25.55;;;23.55;;
19675;SDS011;39539;52.202;9.876;2023-05-07T03:45:47;26.10;;;24.00;;
19675;SDS011;39539;52.202;9.876;2023-05-07T03:48:13;25.80;;;23.60;;
19675;SDS011;39539;52.202;9.876;2023-05-07T03:50:39;25.27;;;23.27;;
19675;SDS011;39539;52.202;9.876;2023-05-07T03:53:04;27.45;;;25.27;;
19675;SDS011;39539;52.202;9.876;2023-05-07T03:55:29;27.42;;;25.20;;
19675;SDS011;39539;52.202;9.876;2023-05-07T03:57:55;27.83;;;25.52;;
19675;SDS011;39539;52.202;9.876;2023-05-07T04:00:21;26.92;;;24.80;;
19675;SDS011;39539;52.202;9.876;2023-05-07T04:02:47;26.58;;;24.40;;
19675;SDS011;39539;52.202;9.876;2023-05-07T04:05:12;25.15;;;23.15;;
19675;SDS011;39539;52.202;9.876;2023-05-07T04:07:40;26.15;;;23.70;;
19675;SDS011;39539;52.202;9.876;2023-05-07T04:10:05;26.27;;;24.10;;
19675;SDS011;39539;52.202;9.876;2023-05-07T04:12:31;27.15;;;24.95;;
19675;SDS011;39539;52.202;9.876;2023-05-07T04:14:56;26.20;;;24.00;;
19675;SDS011;39539;52.202;9.876;2023-05-07T04:17:21;26.55;;;24.05;;
19675;SDS011;39539;52.202;9.876;2023-05-07T04:19:47;25.52;;;23.48;;
19675;SDS011;39539;52.202;9.876;2023-05-07T04:22:12;25.07;;;23.17;;
19675;SDS011;39539;52.202;9.876;2023-05-07T04:24:38;21.98;;;20.27;;
19675;SDS011;39539;52.202;9.876;2023-05-07T04:27:03;24.58;;;22.40;;
19675;SDS011;39539;52.202;9.876;2023-05-07T04:29:29;23.95;;;21.95;;
19675;SDS011;39539;52.202;9.876;2023-05-07T04:31:54;23.80;;;21.80;;
19675;SDS011;39539;52.202;9.876;2023-05-07T04:34:21;23.85;;;21.95;;
19675;SDS011;39539;52.202;9.876;2023-05-07T04:36:46;23.85;;;21.80;;
19675;SDS011;39539;52.202;9.876;2023-05-07T04:39:13;22.98;;;20.98;;
19675;SDS011;39539;52.202;9.876;2023-05-07T04:41:38;20.13;;;18.42;;
19675;SDS011;39539;52.202;9.876;2023-05-07T04:44:04;20.73;;;19.13;;
19675;SDS011;39539;52.202;9.876;2023-05-07T04:46:30;21.58;;;19.98;;
19675;SDS011;39539;52.202;9.876;2023-05-07T04:48:56;20.75;;;19.00;;
19675;SDS011;39539;52.202;9.876;2023-05-07T04:51:21;21.45;;;19.67;;
19675;SDS011;39539;52.202;9.876;2023-05-07T04:53:47;20.17;;;18.77;;
19675;SDS011;39539;52.202;9.876;2023-05-07T04:56:13;21.13;;;19.52;;
19675;SDS011;39539;52.202;9.876;2023-05-07T04:58:39;21.77;;;20.05;;
19675;SDS011;39539;52.202;9.876;2023-05-07T05:01:04;21.25;;;19.55;;
19675;SDS011;39539;52.202;9.876;2023-05-07T05:03:31;21.02;;;19.42;;
19675;SDS011;39539;52.202;9.876;2023-05-07T05:05:56;19.73;;;18.23;;
19675;SDS011;39539;52.202;9.876;2023-05-07T05:08:24;19.98;;;18.42;;
19675;SDS011;39539;52.202;9.876;2023-05-07T05:10:49;19.17;;;17.67;;
19675;SDS011;39539;52.202;9.876;2023-05-07T05:13:15;18.52;;;17.02;;
19675;SDS011;39539;52.202;9.876;2023-05-07T05:15:40;18.80;;;17.23;;
19675;SDS011;39539;52.202;9.876;2023-05-07T05:18:06;18.45;;;17.08;;
19675;SDS011;39539;52.202;9.876;2023-05-07T05:20:31;18.20;;;16.90;;
19675;SDS011;39539;52.202;9.876;2023-05-07T05:22:56;18.45;;;17.05;;
19675;SDS011;39539;52.202;9.876;2023-05-07T05:25:22;18.52;;;17.13;;
19675;SDS011;39539;52.202;9.876;2023-05-07T05:27:47;16.98;;;15.68;;
19675;SDS011;39539;52.202;9.876;2023-05-07T05:30:14;16.52;;;15.25;;
19675;SDS011;39539;52.202;9.876;2023-05-07T05:32:39;18.05;;;16.60;;
19675;SDS011;39539;52.202;9.876;2023-05-07T05:35:04;16.88;;;15.45;;
19675;SDS011;39539;52.202;9.876;2023-05-07T05:37:32;17.38;;;16.08;;
19675;SDS011;39539;52.202;9.876;2023-05-07T05:39:57;16.60;;;15.30;;
19675;SDS011;39539;52.202;9.876;2023-05-07T05:42:22;16.23;;;14.93;;
19675;SDS011;39539;52.202;9.876;2023-05-07T05:44:48;16.88;;;15.57;;
19675;SDS011;39539;52.202;9.876;2023-05-07T05:47:13;16.87;;;15.60;;
19675;SDS011;39539;52.202;9.876;2023-05-07T05:49:39;15.52;;;14.32;;
19675;SDS011;39539;52.202;9.876;2023-05-07T05:52:05;14.75;;;13.65;;
19675;SDS011;39539;52.202;9.876;2023-05-07T05:54:32;15.65;;;14.45;;
19675;SDS011;39539;52.202;9.876;2023-05-07T05:56:58;15.60;;;14.38;;
19675;SDS011;39539;52.202;9.876;2023-05-07T05:59:24;14.88;;;13.77;;
19675;SDS011;39539;52.202;9.876;2023-05-07T06:01:51;14.77;;;13.77;;
19675;SDS011;39539;52.202;9.876;2023-05-07T06:04:16;15.23;;;14.13;;
19675;SDS011;39539;52.202;9.876;2023-05-07T06:06:42;14.15;;;13.15;;
19675;SDS011;39539;52.202;9.876;2023-05-07T06:09:07;15.05;;;13.95;;
19675;SDS011;39539;52.202;9.876;2023-05-07T06:11:32;14.60;;;13.55;;
19675;SDS011;39539;52.202;9.876;2023-05-07T06:13:57;13.60;;;12.60;;
19675;SDS011;39539;52.202;9.876;2023-05-07T06:16:24;13.77;;;12.77;;
19675;SDS011;39539;52.202;9.876;2023-05-07T06:18:50;14.75;;;13.73;;
19675;SDS011;39539;52.202;9.876;2023-05-07T06:21:15;14.05;;;13.05;;
19675;SDS011;39539;52.202;9.876;2023-05-07T06:23:41;12.93;;;12.02;;
19675;SDS011;39539;52.202;9.876;2023-05-07T06:26:07;13.27;;;12.38;;
19675;SDS011;39539;52.202;9.876;2023-05-07T06:28:33;13.07;;;12.18;;
19675;SDS011;39539;52.202;9.876;2023-05-07T06:31:11;12.02;;;11.13;;
19675;SDS011;39539;52.202;9.876;2023-05-07T06:33:37;13.10;;;12.20;;
19675;SDS011;39539;52.202;9.876;2023-05-07T06:36:02;12.18;;;11.38;;
19675;SDS011;39539;52.202;9.876;2023-05-07T06:38:28;11.13;;;10.32;;
19675;SDS011;39539;52.202;9.876;2023-05-07T06:40:53;11.80;;;11.00;;
19675;SDS011;39539;52.202;9.876;2023-05-07T06:43:22;11.70;;;10.75;;
19675;SDS011;39539;52.202;9.876;2023-05-07T06:45:47;11.32;;;10.52;;
19675;SDS011;39539;52.202;9.876;2023-05-07T06:48:13;10.52;;;9.75;;
19675;SDS011;39539;52.202;9.876;2023-05-07T06:50:38;10.73;;;9.93;;
19675;SDS011;39539;52.202;9.876;2023-05-07T06:53:03;10.45;;;9.65;;
19675;SDS011;39539;52.202;9.876;2023-05-07T06:55:29;10.85;;;10.05;;
19675;SDS011;39539;52.202;9.876;2023-05-07T06:57:54;10.63;;;9.93;;
19675;SDS011;39539;52.202;9.876;2023-05-07T07:00:20;10.77;;;10.07;;
19675;SDS011;39539;52.202;9.876;2023-05-07T07:02:46;10.85;;;10.05;;
19675;SDS011;39539;52.202;9.876;2023-05-07T07:05:12;10.25;;;9.55;;
19675;SDS011;39539;52.202;9.876;2023-05-07T07:07:37;10.90;;;10.10;;
19675;SDS011;39539;52.202;9.876;2023-05-07T07:10:03;9.90;;;9.20;;
19675;SDS011;39539;52.202;9.876;2023-05-07T07:12:29;10.50;;;9.70;;
19675;SDS011;39539;52.202;9.876;2023-05-07T07:14:55;10.55;;;9.85;;
19675;SDS011;39539;52.202;9.876;2023-05-07T07:17:20;10.60;;;9.90;;
19675;SDS011;39539;52.202;9.876;2023-05-07T07:19:47;11.18;;;10.35;;
19675;SDS011;39539;52.202;9.876;2023-05-07T07:22:12;11.43;;;10.63;;
19675;SDS011;39539;52.202;9.876;2023-05-07T07:24:38;10.90;;;10.20;;
19675;SDS011;39539;52.202;9.876;2023-05-07T07:27:03;10.40;;;9.63;;
19675;SDS011;39539;52.202;9.876;2023-05-07T07:29:28;10.43;;;9.63;;
19675;SDS011;39539;52.202;9.876;2023-05-07T07:31:55;10.60;;;9.90;;
19675;SDS011;39539;52.202;9.876;2023-05-07T07:34:21;9.70;;;9.10;;
19675;SDS011;39539;52.202;9.876;2023-05-07T07:36:46;9.32;;;8.63;;
19675;SDS011;39539;52.202;9.876;2023-05-07T07:39:12;9.93;;;9.23;;
19675;SDS011;39539;52.202;9.876;2023-05-07T07:41:37;8.70;;;8.20;;
19675;SDS011;39539;52.202;9.876;2023-05-07T07:44:03;10.02;;;9.32;;
19675;SDS011;39539;52.202;9.876;2023-05-07T07:46:31;9.48;;;8.88;;
19675;SDS011;39539;52.202;9.876;2023-05-07T07:48:57;9.88;;;9.18;;
19675;SDS011;39539;52.202;9.876;2023-05-07T07:51:25;10.23;;;9.52;;
19675;SDS011;39539;52.202;9.876;2023-05-07T07:53:51;10.32;;;9.63;;
19675;SDS011;39539;52.202;9.876;2023-05-07T07:56:17;10.98;;;10.20;;
19675;SDS011;39539;52.202;9.876;2023-05-07T07:58:45;12.00;;;11.23;;
19675;SDS011;39539;52.202;9.876;2023-05-07T08:01:19;13.13;;;12.23;;
19675;SDS011;39539;52.202;9.876;2023-05-07T08:03:45;14.65;;;13.65;;
19675;SDS011;39539;52.202;9.876;2023-05-07T08:06:10;13.68;;;12.77;;
19675;SDS011;39539;52.202;9.876;2023-05-07T08:08:36;13.63;;;12.73;;
19675;SDS011;39539;52.202;9.876;2023-05-07T08:11:01;13.98;;;13.07;;
19675;SDS011;39539;52.202;9.876;2023-05-07T08:13:26;14.23;;;13.27;;
19675;SDS011;39539;52.202;9.876;2023-05-07T08:15:52;14.93;;;13.93;;
19675;SDS011;39539;52.202;9.876;2023-05-07T08:18:17;14.25;;;13.35;;
19675;SDS011;39539;52.202;9.876;2023-05-07T08:20:42;15.73;;;14.65;;
19675;SDS011;39539;52.202;9.876;2023-05-07T08:23:08;15.50;;;14.43;;
19675;SDS011;39539;52.202;9.876;2023-05-07T08:25:36;15.00;;;14.00;;
19675;SDS011;39539;52.202;9.876;2023-05-07T08:28:02;15.32;;;14.23;;
19675;SDS011;39539;52.202;9.876;2023-05-07T08:30:28;15.20;;;13.95;;
19675;SDS011;39539;52.202;9.876;2023-05-07T08:32:53;13.48;;;12.57;;
19675;SDS011;39539;52.202;9.876;2023-05-07T08:35:19;13.43;;;12.52;;
19675;SDS011;39539;52.202;9.876;2023-05-07T08:37:45;13.57;;;12.68;;
19675;SDS011;39539;52.202;9.876;2023-05-07T08:40:10;12.52;;;11.73;;
19675;SDS011;39539;52.202;9.876;2023-05-07T08:42:36;12.32;;;11.52;;
19675;SDS011;39539;52.202;9.876;2023-05-07T08:45:04;13.43;;;12.52;;
19675;SDS011;39539;52.202;9.876;2023-05-07T08:47:36;12.25;;;11.45;;
19675;SDS011;39539;52.202;9.876;2023-05-07T08:50:07;13.10;;;12.13;;
19675;SDS011;39539;52.202;9.876;2023-05-07T08:52:33;12.57;;;11.70;;
19675;SDS011;39539;52.202;9.876;2023-05-07T08:54:59;13.73;;;12.73;;
19675;SDS011;39539;52.202;9.876;2023-05-07T08:57:25;13.23;;;12.32;;
19675;SDS011;39539;52.202;9.876;2023-05-07T08:59:50;13.45;;;12.55;;
19675;SDS011;39539;52.202;9.876;2023-05-07T09:02:16;13.50;;;12.70;;
19675;SDS011;39539;52.202;9.876;2023-05-07T09:04:44;12.85;;;11.95;;
19675;SDS011;39539;52.202;9.876;2023-05-07T09:07:10;12.25;;;11.43;;
19675;SDS011;39539;52.202;9.876;2023-05-07T09:09:36;11.10;;;10.30;;
19675;SDS011;39539;52.202;9.876;2023-05-07T09:12:02;12.45;;;11.55;;
19675;SDS011;39539;52.202;9.876;2023-05-07T09:14:28;12.93;;;11.93;;
19675;SDS011;39539;52.202;9.876;2023-05-07T09:16:56;12.10;;;11.32;;
19675;SDS011;39539;52.202;9.876;2023-05-07T09:19:25;12.88;;;11.95;;
19675;SDS011;39539;52.202;9.876;2023-05-07T09:21:58;13.10;;;12.20;;
19675;SDS011;39539;52.202;9.876;2023-05-07T09:24:25;13.90;;;12.80;;
19675;SDS011;39539;52.202;9.876;2023-05-07T09:26:50;14.73;;;13.73;;
19675;SDS011;39539;52.202;9.876;2023-05-07T09:29:16;12.95;;;12.13;;
19675;SDS011;39539;52.202;9.876;2023-05-07T09:31:42;13.50;;;12.60;;
19675;SDS011;39539;52.202;9.876;2023-05-07T09:34:07;14.50;;;13.55;;
19675;SDS011;39539;52.202;9.876;2023-05-07T09:36:33;14.75;;;13.75;;
19675;SDS011;39539;52.202;9.876;2023-05-07T09:39:01;14.68;;;13.68;;
19675;SDS011;39539;52.202;9.876;2023-05-07T09:41:27;15.00;;;14.00;;
19675;SDS011;39539;52.202;9.876;2023-05-07T09:43:55;15.00;;;14.00;;
19675;SDS011;39539;52.202;9.876;2023-05-07T09:46:23;15.48;;;14.48;;
19675;SDS011;39539;52.202;9.876;2023-05-07T09:48:54;16.80;;;15.63;;
19675;SDS011;39539;52.202;9.876;2023-05-07T09:53:54;16.20;;;14.90;;
19675;SDS011;39539;52.202;9.876;2023-05-07T09:56:21;15.88;;;14.80;;
19675;SDS011;39539;52.202;9.876;2023-05-07T09:58:48;16.75;;;15.50;;
19675;SDS011;39539;52.202;9.876;2023-05-07T10:01:15;16.70;;;15.43;;
19675;SDS011;39539;52.202;9.876;2023-05-07T10:03:44;17.20;;;16.00;;
19675;SDS011;39539;52.202;9.876;2023-05-07T10:06:10;16.75;;;15.55;;
19675;SDS011;39539;52.202;9.876;2023-05-07T10:08:38;16.80;;;15.70;;
19675;SDS011;39539;52.202;9.876;2023-05-07T10:11:05;16.02;;;14.93;;
19675;SDS011;39539;52.202;9.876;2023-05-07T10:13:31;15.95;;;14.95;;
19675;SDS011;39539;52.202;9.876;2023-05-07T10:16:00;15.35;;;14.35;;
19675;SDS011;39539;52.202;9.876;2023-05-07T10:18:33;16.15;;;15.05;;
19675;SDS011;39539;52.202;9.876;2023-05-07T10:21:10;15.73;;;14.63;;
19675;SDS011;39539;52.202;9.876;2023-05-07T10:23:40;15.80;;;14.75;;
19675;SDS011;39539;52.202;9.876;2023-05-07T10:26:09;16.27;;;15.18;;
19675;SDS011;39539;52.202;9.876;2023-05-07T10:28:38;15.70;;;14.70;;
19675;SDS011;39539;52.202;9.876;2023-05-07T10:33:44;16.52;;;15.43;;
19675;SDS011;39539;52.202;9.876;2023-05-07T10:36:13;14.52;;;13.63;;
19675;SDS011;39539;52.202;9.876;2023-05-07T10:38:39;15.00;;;14.00;;
19675;SDS011;39539;52.202;9.876;2023-05-07T10:41:05;15.50;;;14.50;;
19675;SDS011;39539;52.202;9.876;2023-05-07T10:43:41;14.48;;;13.60;;
19675;SDS011;39539;52.202;9.876;2023-05-07T10:46:22;14.00;;;13.18;;
19675;SDS011;39539;52.202;9.876;2023-05-07T10:51:29;14.38;;;13.43;;
19675;SDS011;39539;52.202;9.876;2023-05-07T10:56:40;13.70;;;12.82;;
19675;SDS011;39539;52.202;9.876;2023-05-07T11:01:55;13.13;;;12.32;;
19675;SDS011;39539;52.202;9.876;2023-05-07T11:04:22;13.20;;;12.40;;
19675;SDS011;39539;52.202;9.876;2023-05-07T11:10:14;14.18;;;13.27;;
19675;SDS011;39539;52.202;9.876;2023-05-07T11:15:04;13.70;;;12.90;;
19675;SDS011;39539;52.202;9.876;2023-05-07T11:17:34;13.40;;;12.48;;
19675;SDS011;39539;52.202;9.876;2023-05-07T11:20:16;13.63;;;12.60;;
19675;SDS011;39539;52.202;9.876;2023-05-07T11:22:42;12.75;;;11.95;;
19675;SDS011;39539;52.202;9.876;2023-05-07T11:25:07;12.60;;;11.70;;
19675;SDS011;39539;52.202;9.876;2023-05-07T11:27:36;12.70;;;11.90;;
19675;SDS011;39539;52.202;9.876;2023-05-07T11:30:02;12.75;;;11.88;;
19675;SDS011;39539;52.202;9.876;2023-05-07T11:32:28;13.07;;;12.25;;
19675;SDS011;39539;52.202;9.876;2023-05-07T11:34:56;12.23;;;11.43;;
19675;SDS011;39539;52.202;9.876;2023-05-07T11:37:22;13.10;;;12.20;;
19675;SDS011;39539;52.202;9.876;2023-05-07T11:40:02;12.98;;;12.18;;
19675;SDS011;39539;52.202;9.876;2023-05-07T11:42:32;12.98;;;12.18;;
19675;SDS011;39539;52.202;9.876;2023-05-07T11:44:59;12.85;;;12.05;;
19675;SDS011;39539;52.202;9.876;2023-05-07T11:47:25;13.32;;;12.52;;
19675;SDS011;39539;52.202;9.876;2023-05-07T11:49:51;12.30;;;11.57;;
19675;SDS011;39539;52.202;9.876;2023-05-07T11:52:18;12.43;;;11.50;;
19675;SDS011;39539;52.202;9.876;2023-05-07T11:54:49;11.98;;;11.27;;
19675;SDS011;39539;52.202;9.876;2023-05-07T11:57:15;11.98;;;11.27;;
19675;SDS011;39539;52.202;9.876;2023-05-07T11:59:40;11.27;;;10.57;;
19675;SDS011;39539;52.202;9.876;2023-05-07T12:02:07;11.55;;;10.85;;
19675;SDS011;39539;52.202;9.876;2023-05-07T12:04:33;12.07;;;11.25;;
19675;SDS011;39539;52.202;9.876;2023-05-07T12:06:58;10.75;;;10.15;;
19675;SDS011;39539;52.202;9.876;2023-05-07T12:09:23;11.25;;;10.55;;
19675;SDS011;39539;52.202;9.876;2023-05-07T12:11:49;10.48;;;9.82;;
19675;SDS011;39539;52.202;9.876;2023-05-07T12:14:16;10.40;;;9.80;;
19675;SDS011;39539;52.202;9.876;2023-05-07T12:16:42;10.80;;;10.10;;
19675;SDS011;39539;52.202;9.876;2023-05-07T12:19:08;9.52;;;8.93;;
19675;SDS011;39539;52.202;9.876;2023-05-07T12:21:37;9.48;;;8.88;;
19675;SDS011;39539;52.202;9.876;2023-05-07T12:24:04;8.80;;;8.30;;
19675;SDS011;39539;52.202;9.876;2023-05-07T12:26:30;9.23;;;8.68;;
19675;SDS011;39539;52.202;9.876;2023-05-07T12:28:57;9.70;;;9.00;;
19675;SDS011;39539;52.202;9.876;2023-05-07T12:31:22;9.18;;;8.57;;
19675;SDS011;39539;52.202;9.876;2023-05-07T12:33:51;9.10;;;8.50;;
19675;SDS011;39539;52.202;9.876;2023-05-07T12:36:17;9.30;;;8.70;;
19675;SDS011;39539;52.202;9.876;2023-05-07T12:38:42;8.85;;;8.35;;
19675;SDS011;39539;52.202;9.876;2023-05-07T12:41:08;9.35;;;8.80;;
19675;SDS011;39539;52.202;9.876;2023-05-07T12:43:35;9.68;;;9.07;;
19675;SDS011;39539;52.202;9.876;2023-05-07T12:46:03;9.95;;;9.23;;
19675;SDS011;39539;52.202;9.876;2023-05-07T12:48:30;10.40;;;9.80;;
19675;SDS011;39539;52.202;9.876;2023-05-07T12:50:59;10.93;;;10.13;;
19675;SDS011;39539;52.202;9.876;2023-05-07T12:53:26;10.15;;;9.55;;
19675;SDS011;39539;52.202;9.876;2023-05-07T12:55:53;11.13;;;10.38;;
19675;SDS011;39539;52.202;9.876;2023-05-07T12:58:20;11.85;;;11.05;;
19675;SDS011;39539;52.202;9.876;2023-05-07T13:00:51;12.50;;;11.70;;
19675;SDS011;39539;52.202;9.876;2023-05-07T13:03:23;13.55;;;12.75;;
19675;SDS011;39539;52.202;9.876;2023-05-07T13:05:53;13.40;;;12.60;;
19675;SDS011;39539;52.202;9.876;2023-05-07T13:08:28;14.60;;;13.63;;
19675;SDS011;39539;52.202;9.876;2023-05-07T13:10:55;14.23;;;13.23;;
19675;SDS011;39539;52.202;9.876;2023-05-07T13:13:22;14.60;;;13.70;;
19675;SDS011;39539;52.202;9.876;2023-05-07T13:15:48;15.20;;;14.30;;
19675;SDS011;39539;52.202;9.876;2023-05-07T13:18:13;13.93;;;13.13;;
19675;SDS011;39539;52.202;9.876;2023-05-07T13:20:39;14.50;;;13.60;;
19675;SDS011;39539;52.202;9.876;2023-05-07T13:23:05;14.02;;;13.18;;
19675;SDS011;39539;52.202;9.876;2023-05-07T13:25:31;14.90;;;13.82;;
19675;SDS011;39539;52.202;9.876;2023-05-07T13:27:56;14.80;;;13.90;;
19675;SDS011;39539;52.202;9.876;2023-05-07T13:30:22;14.65;;;13.75;;
19675;SDS011;39539;52.202;9.876;2023-05-07T13:32:47;13.77;;;12.98;;
19675;SDS011;39539;52.202;9.876;2023-05-07T13:35:13;13.75;;;12.95;;
19675;SDS011;39539;52.202;9.876;2023-05-07T13:37:40;14.85;;;13.95;;
19675;SDS011;39539;52.202;9.876;2023-05-07T13:40:06;15.23;;;14.32;;
19675;SDS011;39539;52.202;9.876;2023-05-07T13:42:38;13.57;;;12.77;;
19675;SDS011;39539;52.202;9.876;2023-05-07T13:45:06;14.27;;;13.38;;
19675;SDS011;39539;52.202;9.876;2023-05-07T13:47:32;15.23;;;14.13;;
19675;SDS011;39539;52.202;9.876;2023-05-07T13:49:58;14.15;;;13.35;;
19675;SDS011;39539;52.202;9.876;2023-05-07T13:52:24;14.45;;;13.45;;
19675;SDS011;39539;52.202;9.876;2023-05-07T13:54:49;14.30;;;13.40;;
19675;SDS011;39539;52.202;9.876;2023-05-07T13:57:20;13.95;;;13.15;;
19675;SDS011;39539;52.202;9.876;2023-05-07T13:59:45;13.98;;;13.18;;
19675;SDS011;39539;52.202;9.876;2023-05-07T14:02:10;13.23;;;12.43;;
19675;SDS011;39539;52.202;9.876;2023-05-07T14:04:37;13.52;;;12.73;;
19675;SDS011;39539;52.202;9.876;2023-05-07T14:07:03;13.23;;;12.43;;
19675;SDS011;39539;52.202;9.876;2023-05-07T14:09:29;12.43;;;11.68;;
19675;SDS011;39539;52.202;9.876;2023-05-07T14:11:54;12.43;;;11.73;;
19675;SDS011;39539;52.202;9.876;2023-05-07T14:14:21;12.25;;;11.45;;
19675;SDS011;39539;52.202;9.876;2023-05-07T14:16:46;12.20;;;11.40;;
19675;SDS011;39539;52.202;9.876;2023-05-07T14:19:12;12.13;;;11.43;;
19675;SDS011;39539;52.202;9.876;2023-05-07T14:21:37;11.93;;;11.23;;
19675;SDS011;39539;52.202;9.876;2023-05-07T14:24:02;11.95;;;11.25;;
19675;SDS011;39539;52.202;9.876;2023-05-07T14:26:28;11.55;;;10.85;;
19675;SDS011;39539;52.202;9.876;2023-05-07T14:28:54;12.05;;;11.25;;
19675;SDS011;39539;52.202;9.876;2023-05-07T14:31:22;12.57;;;11.77;;
19675;SDS011;39539;52.202;9.876;2023-05-07T14:33:47;12.73;;;11.95;;
19675;SDS011;39539;52.202;9.876;2023-05-07T14:36:14;13.38;;;12.50;;
19675;SDS011;39539;52.202;9.876;2023-05-07T14:38:40;13.23;;;12.23;;